Andesborg — PCLC — position and weather

sailwx.info

Track history (hours):
 
Tides and Currents Weather Stations Pressure Air Temp Water Temp Dewpoint Dewpoint Depression Visibility Wind Speed Wind Dir Waves Ship Positions

Andesborg

Last reported at 2014-Jun-26 05:32 UTC. Time now 2014-Jul-24 17:01 UTC.
Position N 36°00' W 030°06'.
Warning: this ship's position is 28 days out of date.

Length 143 m; draft 9.5 m.

Type: Ship. MMSI: 246797000.

Date/timePositionNaut miles runAvg speedWind from/ knotsBaromVisibWave heightAir tempDewpointWater temp
2014-Jun-26 05:32N 36°00' W 030°06'1712.0
2014-Jun-26 04:05N 36°07' W 029°46'713.0
2014-Jun-26 03:33N 36°10' W 029°38'1313.3
2014-Jun-26 02:33N 36°15' W 029°23'1313.5
2014-Jun-26 01:34N 36°21' W 029°08'1413.8
2014-Jun-26 00:32N 36°26' W 028°52'1313.2
2014-Jun-25 23:33N 36°31' W 028°37'1413.4
2014-Jun-25 22:32N 36°37' W 028°21'2013.5
2014-Jun-25 21:04N 36°44' W 027°58'713.1
2014-Jun-25 20:30N 36°47' W 027°50'1212.9
2014-Jun-25 19:33N 36°52' W 027°36'1413.6
2014-Jun-25 18:33N 36°57' W 027°20'1313.1
2014-Jun-25 17:34N 37°02' W 027°05'1313.0
2014-Jun-25 16:33N 37°07' W 026°50'1312.9
2014-Jun-25 15:33N 37°11' W 026°35'1313.3
2014-Jun-25 14:33N 37°16' W 026°19'1313.0
2014-Jun-25 13:33N 37°21' W 026°04'1312.8
2014-Jun-25 12:33N 37°26' W 025°49'1313.0
2014-Jun-25 11:33N 37°31' W 025°34'1313.3
2014-Jun-25 10:33N 37°35' W 025°18'1313.3
2014-Jun-25 09:33N 37°40' W 025°02'1313.1
2014-Jun-25 08:33N 37°45' W 024°47'1313.4
2014-Jun-25 07:33N 37°49' W 024°31'1413.5
2014-Jun-25 06:33N 37°54' W 024°15'1313.2
2014-Jun-25 05:34N 37°59' W 023°59'1413.1
2014-Jun-25 04:29N 38°04' W 023°42'1212.9
2014-Jun-25 03:32N 38°08' W 023°28'1312.8
2014-Jun-25 02:29N 38°13' W 023°12'1212.7
2014-Jun-25 01:33N 38°17' W 022°58'  
2014-Jun-21 00:18N 43°48' W 005°32'811.2
2014-Jun-20 23:33N 43°47' W 005°21'1211.0
2014-Jun-20 22:30N 43°45' W 005°05'  
2014-Jun-17 18:08N 43°20' W 003°02'0 0.0
2014-Jun-17 17:08N 43°20' W 003°02'0 0.0
2014-Jun-17 15:20N 43°20' W 003°02'0 0.0
2014-Jun-17 14:32N 43°20' W 003°02'0 0.0
2014-Jun-17 13:32N 43°20' W 003°02'0 0.0
2014-Jun-17 12:32N 43°20' W 003°02'0 0.0
2014-Jun-16 19:23N 43°20' W 003°02'0 0.0
2014-Jun-16 18:32N 43°20' W 003°02'0 0.0
2014-Jun-16 17:32N 43°20' W 003°02'0 0.0
2014-Jun-16 16:32N 43°20' W 003°02'0 0.0
2014-Jun-16 15:32N 43°20' W 003°02'0 0.0
2014-Jun-16 14:32N 43°20' W 003°02'0 0.0
2014-Jun-16 13:32N 43°20' W 003°02'0 0.0
2014-Jun-16 12:32N 43°20' W 003°02'  
Track history (hours):
 
Tides and Currents Weather Stations Pressure Air Temp Water Temp Dewpoint Dewpoint Depression Visibility Wind Speed Wind Dir Waves Ship Positions

Andesborg

Last reported at 2014-Jun-26 05:32 UTC. Time now 2014-Jul-24 17:01 UTC.
Position N 36°00' W 030°06'.
Warning: this ship's position is 28 days out of date.

Length 143 m; draft 9.5 m.

Type: Ship. MMSI: 246797000.

Date/timePositionNaut miles runAvg speedWind from/ knotsBaromVisibWave heightAir tempDewpointWater temp
2014-Jun-26 05:32N 36°00' W 030°06'1712.0
2014-Jun-26 04:05N 36°07' W 029°46'713.0
2014-Jun-26 03:33N 36°10' W 029°38'1313.3
2014-Jun-26 02:33N 36°15' W 029°23'1313.5
2014-Jun-26 01:34N 36°21' W 029°08'1413.8
2014-Jun-26 00:32N 36°26' W 028°52'1313.2
2014-Jun-25 23:33N 36°31' W 028°37'1413.4
2014-Jun-25 22:32N 36°37' W 028°21'2013.5
2014-Jun-25 21:04N 36°44' W 027°58'713.1
2014-Jun-25 20:30N 36°47' W 027°50'1212.9
2014-Jun-25 19:33N 36°52' W 027°36'1413.6
2014-Jun-25 18:33N 36°57' W 027°20'1313.1
2014-Jun-25 17:34N 37°02' W 027°05'1313.0
2014-Jun-25 16:33N 37°07' W 026°50'1312.9
2014-Jun-25 15:33N 37°11' W 026°35'1313.3
2014-Jun-25 14:33N 37°16' W 026°19'1313.0
2014-Jun-25 13:33N 37°21' W 026°04'1312.8
2014-Jun-25 12:33N 37°26' W 025°49'1313.0
2014-Jun-25 11:33N 37°31' W 025°34'1313.3
2014-Jun-25 10:33N 37°35' W 025°18'1313.3
2014-Jun-25 09:33N 37°40' W 025°02'1313.1
2014-Jun-25 08:33N 37°45' W 024°47'1313.4
2014-Jun-25 07:33N 37°49' W 024°31'1413.5
2014-Jun-25 06:33N 37°54' W 024°15'1313.2
2014-Jun-25 05:34N 37°59' W 023°59'1413.1
2014-Jun-25 04:29N 38°04' W 023°42'1212.9
2014-Jun-25 03:32N 38°08' W 023°28'1312.8
2014-Jun-25 02:29N 38°13' W 023°12'1212.7
2014-Jun-25 01:33N 38°17' W 022°58'  
2014-Jun-21 00:18N 43°48' W 005°32'811.2
2014-Jun-20 23:33N 43°47' W 005°21'1211.0
2014-Jun-20 22:30N 43°45' W 005°05'  
2014-Jun-17 18:08N 43°20' W 003°02'0 0.0
2014-Jun-17 17:08N 43°20' W 003°02'0 0.0
2014-Jun-17 15:20N 43°20' W 003°02'0 0.0
2014-Jun-17 14:32N 43°20' W 003°02'0 0.0
2014-Jun-17 13:32N 43°20' W 003°02'0 0.0
2014-Jun-17 12:32N 43°20' W 003°02'0 0.0
2014-Jun-16 19:23N 43°20' W 003°02'0 0.0
2014-Jun-16 18:32N 43°20' W 003°02'0 0.0
2014-Jun-16 17:32N 43°20' W 003°02'0 0.0
2014-Jun-16 16:32N 43°20' W 003°02'0 0.0
2014-Jun-16 15:32N 43°20' W 003°02'0 0.0
2014-Jun-16 14:32N 43°20' W 003°02'0 0.0
2014-Jun-16 13:32N 43°20' W 003°02'0 0.0
2014-Jun-16 12:32N 43°20' W 003°02'  

Dump ship's entire track history